createdAt,value
2022-10-12T00:00:16.759Z,102142.72
2022-10-12T00:02:43.569Z,102150.53
2022-10-12T00:05:10.194Z,102146.75
2022-10-12T00:07:37.278Z,102140.75
2022-10-12T00:10:04.469Z,102136.16
2022-10-12T00:12:31.002Z,102147.31
2022-10-12T00:14:57.631Z,102131.00
2022-10-12T00:17:24.083Z,102144.44
2022-10-12T00:19:50.737Z,102139.06
2022-10-12T00:22:17.181Z,102139.50
2022-10-12T00:24:43.652Z,102138.72
2022-10-12T00:27:10.105Z,102130.66
2022-10-12T00:29:36.540Z,102138.94
2022-10-12T00:32:02.987Z,102142.16
2022-10-12T00:34:29.409Z,102138.44
2022-10-12T00:36:56.570Z,102140.97
2022-10-12T00:39:23.000Z,102147.19
2022-10-12T00:41:49.473Z,102147.41
2022-10-12T00:44:41.009Z,102148.22
2022-10-12T00:47:22.658Z,102141.69
2022-10-12T00:49:56.633Z,102136.84
2022-10-12T00:52:28.632Z,102142.03
2022-10-12T00:54:55.839Z,102129.97
2022-10-12T00:57:23.530Z,102140.75
2022-10-12T00:59:54.767Z,102145.81
2022-10-12T01:02:24.155Z,102149.91
2022-10-12T01:04:50.774Z,102134.88
2022-10-12T01:07:17.536Z,102148.19
2022-10-12T01:09:44.086Z,102154.72
2022-10-12T01:12:11.285Z,102145.53
2022-10-12T01:14:37.833Z,102141.03
2022-10-12T01:17:48.458Z,102139.31
2022-10-12T01:20:42.847Z,102142.06
2022-10-12T01:23:18.595Z,102142.53
2022-10-12T01:26:03.783Z,102140.13
2022-10-12T01:29:02.311Z,102138.84
2022-10-12T01:32:03.524Z,102147.44
2022-10-12T01:34:40.317Z,102146.63
2022-10-12T01:37:21.375Z,102136.44
2022-10-12T01:39:54.357Z,102137.25
2022-10-12T01:42:26.582Z,102136.63
2022-10-12T01:45:08.862Z,102135.03
2022-10-12T01:47:37.766Z,102123.59
2022-10-12T01:50:08.107Z,102130.22
2022-10-12T01:52:51.814Z,102118.50
2022-10-12T01:55:38.961Z,102128.47
2022-10-12T01:58:11.438Z,102118.63
2022-10-12T02:00:52.026Z,102121.38
2022-10-12T02:03:44.692Z,102116.53
2022-10-12T02:06:18.701Z,102111.25
2022-10-12T02:08:52.123Z,102119.28
2022-10-12T02:11:21.453Z,102116.53
2022-10-12T02:13:53.506Z,102114.94
2022-10-12T02:16:24.746Z,102112.41
2022-10-12T02:18:54.682Z,102115.38
2022-10-12T02:21:27.169Z,102115.84
2022-10-12T02:23:56.444Z,102111.78
2022-10-12T02:26:23.771Z,102111.94
2022-10-12T02:28:50.950Z,102110.69
2022-10-12T02:31:35.214Z,102099.19
2022-10-12T02:34:10.662Z,102101.75
2022-10-12T02:37:11.720Z,102087.16
2022-10-12T02:40:15.104Z,102086.03
2022-10-12T02:43:09.217Z,102085.25
2022-10-12T02:45:38.417Z,102082.47
2022-10-12T02:48:06.147Z,102082.69
2022-10-12T02:50:33.312Z,102076.72
2022-10-12T02:52:59.819Z,102077.06
2022-10-12T02:55:26.311Z,102072.69
2022-10-12T02:57:52.820Z,102068.91
2022-10-12T03:00:19.281Z,102072.91
2022-10-12T03:02:45.662Z,102069.69
2022-10-12T03:05:12.071Z,102064.31
2022-10-12T03:07:38.662Z,102053.66
2022-10-12T03:10:05.621Z,102057.56
2022-10-12T03:12:32.038Z,102065.81
2022-10-12T03:14:58.487Z,102070.38
2022-10-12T03:17:24.879Z,102069.91
2022-10-12T03:19:51.300Z,102073.34
2022-10-12T03:22:17.722Z,102070.44
2022-10-12T03:24:44.160Z,102068.50
2022-10-12T03:27:10.583Z,102063.69
2022-10-12T03:29:37.002Z,102056.91
2022-10-12T03:32:03.510Z,102058.53
2022-10-12T03:34:29.953Z,102061.41
2022-10-12T03:36:56.362Z,102055.56
2022-10-12T03:39:22.773Z,102057.50
2022-10-12T03:41:49.205Z,102054.16
2022-10-12T03:44:15.681Z,102064.34
2022-10-12T03:46:42.066Z,102060.69
2022-10-12T03:49:08.674Z,102061.84
2022-10-12T03:51:35.224Z,102058.59
2022-10-12T03:54:01.639Z,102054.94
2022-10-12T03:56:28.232Z,102053.44
2022-10-12T03:58:54.725Z,102065.59
2022-10-12T04:01:21.197Z,102050.91
2022-10-12T04:03:47.632Z,102040.25
2022-10-12T04:06:14.087Z,102045.53
2022-10-12T04:08:41.836Z,102050.25
2022-10-12T04:11:08.522Z,102047.59
2022-10-12T04:13:35.365Z,102045.66
2022-10-12T04:16:06.332Z,102040.50
2022-10-12T04:18:34.346Z,102038.09
2022-10-12T04:21:01.629Z,102049.19
2022-10-12T04:23:28.588Z,102041.56
2022-10-12T04:25:54.978Z,102039.84
2022-10-12T04:28:21.470Z,102042.25
2022-10-12T04:30:47.921Z,102033.31
2022-10-12T04:33:14.387Z,102033.84
2022-10-12T04:35:40.785Z,102037.19
2022-10-12T04:38:07.222Z,102023.59
2022-10-12T04:40:33.654Z,102029.19
2022-10-12T04:43:00.220Z,102031.75
2022-10-12T04:45:26.634Z,102037.34
2022-10-12T04:47:53.026Z,102040.59
2022-10-12T04:50:19.823Z,102032.00
2022-10-12T04:52:46.462Z,102039.66
2022-10-12T04:55:12.874Z,102036.44
2022-10-12T04:57:39.742Z,102030.94
2022-10-12T05:00:07.767Z,102023.94
2022-10-12T05:02:34.186Z,102034.16
2022-10-12T05:05:00.659Z,102034.16
2022-10-12T05:07:27.113Z,102036.56
2022-10-12T05:09:53.648Z,102026.81
2022-10-12T05:12:20.096Z,102037.34
2022-10-12T05:14:46.585Z,102025.56
2022-10-12T05:17:13.038Z,102017.31
2022-10-12T05:19:39.553Z,102011.59
2022-10-12T05:22:06.035Z,102014.22
2022-10-12T05:24:32.574Z,102015.00
2022-10-12T05:26:59.005Z,102010.53
2022-10-12T05:29:25.465Z,102011.22
2022-10-12T05:31:51.975Z,102012.34
2022-10-12T05:34:18.432Z,102014.75
2022-10-12T05:36:45.284Z,102010.75
2022-10-12T05:39:11.710Z,102011.91
2022-10-12T05:41:38.123Z,102012.59
2022-10-12T05:44:04.783Z,102018.88
2022-10-12T05:46:31.194Z,102027.59
2022-10-12T05:48:57.654Z,102021.84
2022-10-12T05:51:28.568Z,102040.28
2022-10-12T05:53:55.356Z,102041.44
2022-10-12T05:56:21.847Z,102041.44
2022-10-12T05:58:48.289Z,102036.25
2022-10-12T06:01:14.775Z,102046.13
2022-10-12T06:03:41.218Z,102046.44
2022-10-12T06:06:07.892Z,102041.66
2022-10-12T06:08:34.947Z,102049.09
2022-10-12T06:11:01.689Z,102052.19
2022-10-12T06:13:28.252Z,102044.47
2022-10-12T06:15:55.003Z,102049.63
2022-10-12T06:18:22.263Z,102051.09
2022-10-12T06:20:56.544Z,102050.91
2022-10-12T06:23:35.483Z,102045.06
2022-10-12T06:26:02.440Z,102042.66
2022-10-12T06:28:29.210Z,102041.38
2022-10-12T06:30:57.965Z,102044.25
2022-10-12T06:33:24.942Z,102043.44
2022-10-12T06:35:51.855Z,102033.13
2022-10-12T06:38:18.335Z,102035.53
2022-10-12T06:40:45.106Z,102043.59
2022-10-12T06:43:11.626Z,102031.78
2022-10-12T06:45:38.376Z,102042.09
2022-10-12T06:48:05.563Z,102046.44
2022-10-12T06:50:31.952Z,102044.84
2022-10-12T06:52:58.394Z,102050.94
2022-10-12T06:55:24.983Z,102051.09
2022-10-12T06:57:51.443Z,102047.66
2022-10-12T07:00:18.062Z,102042.59
2022-10-12T07:02:44.557Z,102038.03
2022-10-12T07:05:11.036Z,102030.25
2022-10-12T07:07:37.962Z,102028.44
2022-10-12T07:10:05.394Z,102029.00
2022-10-12T07:12:31.782Z,102016.53
2022-10-12T07:14:59.284Z,102026.16
2022-10-12T07:17:25.755Z,102019.53
2022-10-12T07:19:52.208Z,102026.88
2022-10-12T07:22:18.647Z,102021.13
2022-10-12T07:24:45.089Z,102024.25
2022-10-12T07:27:11.737Z,102017.72
2022-10-12T07:29:39.873Z,102028.03
2022-10-12T07:32:07.481Z,102022.41
2022-10-12T07:34:34.782Z,102022.78
2022-10-12T07:37:01.443Z,102028.25
2022-10-12T07:39:28.153Z,102017.94
2022-10-12T07:41:55.085Z,102015.16
2022-10-12T07:44:22.504Z,102027.25
2022-10-12T07:46:49.210Z,102017.13
2022-10-12T07:49:16.557Z,102020.84
2022-10-12T07:51:43.305Z,102023.75
2022-10-12T07:54:10.275Z,102019.94
2022-10-12T07:56:36.876Z,102017.31
2022-10-12T07:59:03.289Z,102017.84
2022-10-12T08:01:31.206Z,102016.75
2022-10-12T08:04:01.474Z,102017.63
2022-10-12T08:06:30.794Z,102025.56
2022-10-12T08:08:58.551Z,102019.28
2022-10-12T08:11:25.083Z,102019.69
2022-10-12T08:13:51.537Z,102012.84
2022-10-12T08:16:21.026Z,102019.53
2022-10-12T08:18:47.748Z,102020.25
2022-10-12T08:21:15.786Z,102026.50
2022-10-12T08:23:44.406Z,102027.53
2022-10-12T08:26:12.179Z,102015.84
2022-10-12T08:28:39.055Z,102019.25
2022-10-12T08:31:11.899Z,102012.75
2022-10-12T08:33:38.454Z,102011.69
2022-10-12T08:36:06.954Z,102019.44
2022-10-12T08:38:34.668Z,102021.66
2022-10-12T08:41:21.283Z,102016.25
2022-10-12T08:44:08.508Z,102010.81
2022-10-12T08:46:35.169Z,102005.31
2022-10-12T08:49:05.154Z,102012.22
2022-10-12T08:51:40.115Z,102008.03
2022-10-12T08:54:11.400Z,102008.25
2022-10-12T08:56:40.175Z,102001.75
2022-10-12T08:59:13.575Z,102001.50
2022-10-12T09:01:57.226Z,102002.88
2022-10-12T09:04:50.773Z,102000.63
2022-10-12T09:07:26.591Z,101993.16
2022-10-12T09:10:14.845Z,102010.84
2022-10-12T09:12:55.458Z,102001.44
2022-10-12T09:15:26.425Z,101999.97
2022-10-12T09:17:55.467Z,102007.25
2022-10-12T09:20:21.868Z,102008.53
2022-10-12T09:22:58.641Z,102008.69
2022-10-12T09:25:27.564Z,102006.41
2022-10-12T09:27:57.855Z,102010.84
2022-10-12T09:30:24.275Z,102013.28
2022-10-12T09:33:09.919Z,102017.69
2022-10-12T09:35:37.083Z,102005.78
2022-10-12T09:38:03.860Z,102014.13
2022-10-12T09:40:32.701Z,102003.38
2022-10-12T09:43:01.810Z,102011.34
2022-10-12T09:45:32.291Z,102010.09
2022-10-12T09:48:31.285Z,101988.97
2022-10-12T09:51:00.733Z,102001.66
2022-10-12T09:53:27.500Z,101996.03
2022-10-12T09:55:58.370Z,102010.34
2022-10-12T09:58:26.977Z,102000.00
2022-10-12T10:01:33.149Z,102003.59
2022-10-12T10:04:32.085Z,101995.22
2022-10-12T10:07:18.183Z,102003.09
2022-10-12T10:09:45.195Z,101999.38
2022-10-12T10:12:29.776Z,101997.44
2022-10-12T10:14:58.085Z,101994.19
2022-10-12T10:17:28.083Z,101995.75
2022-10-12T10:19:56.772Z,101988.19
2022-10-12T10:22:24.412Z,101988.06
2022-10-12T10:24:56.387Z,101985.94
2022-10-12T10:27:34.237Z,101984.78
2022-10-12T10:30:29.518Z,101992.28
2022-10-12T10:33:15.522Z,101974.50
2022-10-12T10:35:54.344Z,101986.81
2022-10-12T10:38:20.963Z,101970.59
2022-10-12T10:40:52.548Z,101990.09
2022-10-12T10:43:27.719Z,101989.38
2022-10-12T10:46:03.117Z,101979.81
2022-10-12T10:48:35.075Z,101977.75
2022-10-12T10:51:05.110Z,101968.66
2022-10-12T10:53:44.124Z,101966.63
2022-10-12T10:56:16.398Z,101970.09
2022-10-12T10:58:46.856Z,101966.88
2022-10-12T11:01:28.400Z,101965.84
2022-10-12T11:04:01.173Z,101964.53
2022-10-12T11:06:43.192Z,101960.06
2022-10-12T11:09:15.490Z,101949.38
2022-10-12T11:11:45.441Z,101944.91
2022-10-12T11:14:16.770Z,101953.69
2022-10-12T11:16:55.361Z,101949.56
2022-10-12T11:19:30.140Z,101951.09
2022-10-12T11:22:06.163Z,101956.66
2022-10-12T11:24:44.262Z,101955.25
2022-10-12T11:27:22.764Z,101951.31
2022-10-12T11:30:08.384Z,101948.81
2022-10-12T11:32:41.472Z,101932.41
2022-10-12T11:35:15.666Z,101930.72
2022-10-12T11:38:14.903Z,101930.59
2022-10-12T11:41:09.404Z,101932.41
2022-10-12T11:43:50.591Z,101925.75
2022-10-12T11:46:18.835Z,101913.78
2022-10-12T11:48:54.947Z,101914.19
2022-10-12T11:51:21.383Z,101910.84
2022-10-12T11:54:27.712Z,101902.97
2022-10-12T11:56:58.669Z,101896.69
2022-10-12T11:59:38.939Z,101901.19
2022-10-12T12:02:27.163Z,101904.16
2022-10-12T12:04:54.473Z,101905.03
2022-10-12T12:07:54.456Z,101896.88
2022-10-12T12:10:27.576Z,101890.56
2022-10-12T12:13:17.542Z,101882.06
2022-10-12T12:16:13.148Z,101881.88
2022-10-12T12:19:10.646Z,101880.41
2022-10-12T12:22:14.475Z,101883.25
2022-10-12T12:24:52.624Z,101891.13
2022-10-12T12:27:32.798Z,101881.38
2022-10-12T12:30:24.482Z,101881.25
2022-10-12T12:33:01.933Z,101876.00
2022-10-12T12:35:31.474Z,101867.94
2022-10-12T12:38:06.272Z,101877.47
2022-10-12T12:40:33.517Z,101868.81
2022-10-12T12:43:36.185Z,101875.28
2022-10-12T12:46:20.910Z,101868.13
2022-10-12T12:48:47.307Z,101866.47
2022-10-12T12:51:15.235Z,101867.09
2022-10-12T12:53:56.026Z,101862.41
2022-10-12T12:56:59.764Z,101855.66
2022-10-12T12:59:52.782Z,101851.69
2022-10-12T13:02:49.332Z,101849.78
2022-10-12T13:05:45.083Z,101846.75
2022-10-12T13:08:35.210Z,101845.88
2022-10-12T13:11:29.594Z,101838.81
2022-10-12T13:14:12.131Z,101843.56
2022-10-12T13:19:55.165Z,101831.06
2022-10-12T13:22:29.433Z,101835.59
2022-10-12T13:25:03.228Z,101830.94
2022-10-12T13:27:49.816Z,101823.81
2022-10-12T13:30:21.939Z,101825.69
2022-10-12T13:32:59.010Z,101819.06
2022-10-12T13:35:38.672Z,101819.38
2022-10-12T13:38:27.001Z,101809.59
2022-10-12T13:41:02.325Z,101806.59
2022-10-12T13:43:34.045Z,101810.56
2022-10-12T13:46:00.758Z,101798.50
2022-10-12T13:48:54.020Z,101801.28
2022-10-12T13:51:28.896Z,101789.00
2022-10-12T13:53:56.148Z,101800.03
2022-10-12T13:56:29.002Z,101792.84
2022-10-12T13:59:05.577Z,101784.72
2022-10-12T14:01:51.650Z,101782.72
2022-10-12T14:04:18.054Z,101782.22
2022-10-12T14:06:49.462Z,101782.22
2022-10-12T14:09:20.800Z,101783.66
2022-10-12T14:11:49.042Z,101783.34
2022-10-12T14:14:31.617Z,101778.97
2022-10-12T14:16:58.252Z,101768.84
2022-10-12T14:19:40.050Z,101773.66
2022-10-12T14:22:07.587Z,101776.59
2022-10-12T14:24:37.360Z,101771.91
2022-10-12T14:27:06.401Z,101773.91
2022-10-12T14:29:39.395Z,101767.56
2022-10-12T14:32:07.622Z,101774.53
2022-10-12T14:35:08.807Z,101775.06
2022-10-12T14:37:35.233Z,101763.47
2022-10-12T14:40:24.075Z,101771.50
2022-10-12T14:42:57.688Z,101768.31
2022-10-12T14:45:25.898Z,101769.25
2022-10-12T14:47:53.062Z,101759.22
2022-10-12T14:50:21.686Z,101757.66
2022-10-12T14:52:50.427Z,101758.47
2022-10-12T14:55:19.882Z,101758.81
2022-10-12T14:57:47.251Z,101761.66
2022-10-12T15:00:18.676Z,101755.34
2022-10-12T15:02:45.414Z,101753.53
2022-10-12T15:05:14.133Z,101755.34
2022-10-12T15:07:41.094Z,101753.47
2022-10-12T15:10:08.396Z,101750.28
2022-10-12T15:12:35.346Z,101750.91
2022-10-12T15:15:17.617Z,101746.50
2022-10-12T15:17:44.037Z,101749.59
2022-10-12T15:20:11.003Z,101732.22
2022-10-12T15:22:37.456Z,101741.19
2022-10-12T15:25:18.047Z,101729.72
2022-10-12T15:27:44.477Z,101725.53
2022-10-12T15:30:11.556Z,101720.72
2022-10-12T15:32:38.030Z,101730.56
2022-10-12T15:35:20.029Z,101741.50
2022-10-12T15:37:46.818Z,101729.66
2022-10-12T15:40:13.709Z,101732.88
2022-10-12T15:42:42.428Z,101735.50
2022-10-12T15:45:24.702Z,101737.72
2022-10-12T15:47:52.125Z,101733.72
2022-10-12T15:50:24.646Z,101733.56
2022-10-12T15:52:51.582Z,101738.34
2022-10-12T15:55:24.218Z,101732.19
2022-10-12T15:57:52.578Z,101740.97
2022-10-12T16:00:22.232Z,101731.44
2022-10-12T16:02:48.760Z,101730.53
2022-10-12T16:05:30.426Z,101720.22
2022-10-12T16:07:57.114Z,101715.00
2022-10-12T16:10:26.756Z,101692.19
2022-10-12T16:12:54.750Z,101692.53
2022-10-12T16:15:29.446Z,101694.91
2022-10-12T16:17:56.650Z,101688.91
2022-10-12T16:20:23.891Z,101683.34
2022-10-12T16:22:51.334Z,101689.13
2022-10-12T16:25:21.414Z,101704.03
2022-10-12T16:27:49.284Z,101711.31
2022-10-12T16:30:16.025Z,101699.78
2022-10-12T16:32:42.504Z,101682.97
2022-10-12T16:35:09.402Z,101675.41
2022-10-12T16:37:36.350Z,101684.25
2022-10-12T16:40:04.993Z,101691.09
2022-10-12T16:42:31.716Z,101689.63
2022-10-12T16:44:58.143Z,101702.44
2022-10-12T16:47:25.465Z,101684.53
2022-10-12T16:49:53.823Z,101684.19
2022-10-12T16:52:24.374Z,101692.25
2022-10-12T16:54:51.964Z,101702.25
2022-10-12T16:57:18.473Z,101701.94
2022-10-12T16:59:44.929Z,101690.03
2022-10-12T17:02:12.122Z,101708.81
2022-10-12T17:04:38.563Z,101698.13
2022-10-12T17:07:05.244Z,101706.97
2022-10-12T17:09:31.749Z,101699.88
2022-10-12T17:11:58.375Z,101707.88
2022-10-12T17:14:24.849Z,101699.97
2022-10-12T17:16:52.291Z,101709.97
2022-10-12T17:19:21.414Z,101704.84
2022-10-12T17:21:48.445Z,101708.13
2022-10-12T17:24:18.205Z,101704.16
2022-10-12T17:26:45.610Z,101731.28
2022-10-12T17:29:15.721Z,101737.66
2022-10-12T17:31:43.102Z,101735.72
2022-10-12T17:34:18.313Z,101737.69
2022-10-12T17:36:45.283Z,101727.78
2022-10-12T17:39:11.798Z,101721.84
2022-10-12T17:41:38.266Z,101743.75
2022-10-12T17:44:04.785Z,101741.34
2022-10-12T17:46:31.270Z,101746.53
2022-10-12T17:48:59.210Z,101734.66
2022-10-12T17:51:26.390Z,101737.03
2022-10-12T17:53:53.529Z,101731.47
2022-10-12T17:56:20.156Z,101726.28
2022-10-12T17:58:46.655Z,101737.84
2022-10-12T18:01:15.580Z,101739.84
2022-10-12T18:03:44.571Z,101739.06
2022-10-12T18:06:15.627Z,101732.69
2022-10-12T18:08:43.227Z,101736.25
2022-10-12T18:11:10.636Z,101729.53
2022-10-12T18:13:38.013Z,101727.50
2022-10-12T18:16:10.486Z,101717.16
2022-10-12T18:18:38.152Z,101711.19
2022-10-12T18:21:10.525Z,101721.13
2022-10-12T18:23:37.403Z,101723.91
2022-10-12T18:26:05.407Z,101721.09
2022-10-12T18:28:32.019Z,101729.81
2022-10-12T18:30:58.568Z,101725.84
2022-10-12T18:33:25.705Z,101735.38
2022-10-12T18:35:52.130Z,101729.81
2022-10-12T18:38:18.840Z,101739.72
2022-10-12T18:40:47.425Z,101739.31
2022-10-12T18:43:14.334Z,101744.44
2022-10-12T18:45:44.727Z,101734.09
2022-10-12T18:48:12.325Z,101752.31
2022-10-12T18:50:39.873Z,101744.72
2022-10-12T18:53:06.772Z,101741.53
2022-10-12T18:55:37.950Z,101737.56
2022-10-12T18:58:04.359Z,101737.91
2022-10-12T19:00:31.653Z,101734.72
2022-10-12T19:02:58.335Z,101719.53
2022-10-12T19:05:24.933Z,101723.13
2022-10-12T19:07:51.355Z,101724.28
2022-10-12T19:10:17.829Z,101728.22
2022-10-12T19:12:45.819Z,101718.66
2022-10-12T19:15:12.572Z,101725.78
2022-10-12T19:17:39.044Z,101717.44
2022-10-12T19:20:06.167Z,101709.13
2022-10-12T19:22:33.334Z,101720.56
2022-10-12T19:24:59.759Z,101713.44
2022-10-12T19:27:26.213Z,101710.28
2022-10-12T19:29:52.744Z,101704.69
2022-10-12T19:32:19.591Z,101705.84
2022-10-12T19:34:46.259Z,101700.25
2022-10-12T19:37:12.739Z,101700.56
2022-10-12T19:39:44.455Z,101700.97
2022-10-12T19:42:10.952Z,101702.16
2022-10-12T19:44:37.387Z,101697.75
2022-10-12T19:47:03.924Z,101698.91
2022-10-12T19:49:35.770Z,101698.06
2022-10-12T19:52:03.672Z,101690.47
2022-10-12T19:54:34.097Z,101685.28
2022-10-12T19:57:02.401Z,101681.69
2022-10-12T19:59:28.901Z,101680.47
2022-10-12T20:01:55.339Z,101682.84
2022-10-12T20:04:21.936Z,101666.81
2022-10-12T20:06:48.369Z,101686.59
2022-10-12T20:09:14.843Z,101680.59
2022-10-12T20:11:41.284Z,101682.59
2022-10-12T20:14:08.007Z,101684.56
2022-10-12T20:16:35.397Z,101688.47
2022-10-12T20:19:02.528Z,101687.47
2022-10-12T20:21:28.944Z,101683.88
2022-10-12T20:23:55.486Z,101683.50
2022-10-12T20:26:24.111Z,101688.25
2022-10-12T20:28:51.911Z,101684.72
2022-10-12T20:31:22.908Z,101684.28
2022-10-12T20:33:52.394Z,101680.75
2022-10-12T20:36:22.456Z,101683.91
2022-10-12T20:38:49.258Z,101688.63
2022-10-12T20:41:21.206Z,101694.09
2022-10-12T20:43:47.756Z,101688.56
2022-10-12T20:46:15.996Z,101683.38
2022-10-12T20:48:44.412Z,101683.28
2022-10-12T20:51:18.937Z,101692.34
2022-10-12T20:53:45.430Z,101685.06
2022-10-12T20:56:12.032Z,101688.16
2022-10-12T20:58:38.623Z,101678.22
2022-10-12T21:01:07.299Z,101693.69
2022-10-12T21:03:34.683Z,101685.00
2022-10-12T21:06:06.823Z,101674.66
2022-10-12T21:08:33.415Z,101682.97
2022-10-12T21:11:00.258Z,101675.69
2022-10-12T21:13:29.809Z,101674.06
2022-10-12T21:15:56.642Z,101677.13
2022-10-12T21:18:23.162Z,101675.50
2022-10-12T21:21:04.928Z,101672.28
2022-10-12T21:23:31.371Z,101673.88
2022-10-12T21:25:57.890Z,101668.59
2022-10-12T21:28:24.484Z,101674.81
2022-10-12T21:30:50.998Z,101674.81
2022-10-12T21:33:18.413Z,101672.41
2022-10-12T21:35:45.069Z,101664.41
2022-10-12T21:38:11.540Z,101672.19
2022-10-12T21:40:37.993Z,101673.75
2022-10-12T21:43:04.434Z,101670.53
2022-10-12T21:45:30.874Z,101672.88
2022-10-12T21:47:58.454Z,101674.84
2022-10-12T21:50:24.963Z,101662.88
2022-10-12T21:52:51.407Z,101657.28
2022-10-12T21:55:17.821Z,101670.06
2022-10-12T21:57:44.648Z,101665.34
2022-10-12T22:00:11.867Z,101668.84
2022-10-12T22:02:38.298Z,101670.72
2022-10-12T22:05:05.143Z,101673.50
2022-10-12T22:07:31.548Z,101667.19
2022-10-12T22:09:59.078Z,101656.03
2022-10-12T22:12:25.503Z,101669.09
2022-10-12T22:14:51.938Z,101654.41
2022-10-12T22:17:18.382Z,101661.56
2022-10-12T22:19:44.827Z,101668.22
2022-10-12T22:22:11.201Z,101661.47
2022-10-12T22:24:37.665Z,101667.81
2022-10-12T22:27:04.178Z,101658.66
2022-10-12T22:29:30.722Z,101640.41
2022-10-12T22:31:57.155Z,101649.09
2022-10-12T22:34:23.606Z,101654.00
2022-10-12T22:36:50.464Z,101648.72
2022-10-12T22:39:17.704Z,101653.03
2022-10-12T22:41:44.258Z,101646.34
2022-10-12T22:44:10.779Z,101645.13
2022-10-12T22:46:37.196Z,101642.34
2022-10-12T22:49:04.190Z,101649.91
2022-10-12T22:51:33.159Z,101638.84
2022-10-12T22:54:00.356Z,101644.53
2022-10-12T22:56:27.225Z,101637.44
2022-10-12T22:58:58.343Z,101637.44
2022-10-12T23:01:25.551Z,101632.28
2022-10-12T23:03:53.232Z,101632.38
2022-10-12T23:06:20.668Z,101641.56
2022-10-12T23:08:47.709Z,101639.19
2022-10-12T23:11:17.089Z,101633.66
2022-10-12T23:13:44.383Z,101632.91
2022-10-12T23:16:22.692Z,101634.50
2022-10-12T23:18:59.251Z,101624.63
2022-10-12T23:21:27.297Z,101637.25
2022-10-12T23:23:53.949Z,101630.88
2022-10-12T23:26:23.041Z,101627.00
2022-10-12T23:28:50.114Z,101630.16
2022-10-12T23:31:22.751Z,101624.63
2022-10-12T23:33:49.357Z,101614.22
2022-10-12T23:36:17.414Z,101627.41
2022-10-12T23:38:45.014Z,101629.41
2022-10-12T23:41:13.025Z,101623.88
2022-10-12T23:43:39.790Z,101616.75
2022-10-12T23:46:06.338Z,101620.38
2022-10-12T23:48:33.808Z,101620.81
2022-10-12T23:51:01.011Z,101619.63
2022-10-12T23:53:27.626Z,101619.25
2022-10-12T23:55:54.052Z,101627.19
2022-10-12T23:58:20.802Z,101622.06
